sensor_id;sensor_type;location;lat;lon;timestamp;P1;durP1;ratioP1;P2;durP2;ratioP2
21501;SDS011;27639;48.674;9.242;2022-11-06T00:01:06;15.73;;;11.48;;
21501;SDS011;27639;48.674;9.242;2022-11-06T00:03:36;13.80;;;10.73;;
21501;SDS011;27639;48.674;9.242;2022-11-06T00:06:06;17.10;;;11.85;;
21501;SDS011;27639;48.674;9.242;2022-11-06T00:08:54;14.75;;;11.82;;
21501;SDS011;27639;48.674;9.242;2022-11-06T00:11:20;13.15;;;10.70;;
21501;SDS011;27639;48.674;9.242;2022-11-06T00:13:46;16.25;;;11.40;;
21501;SDS011;27639;48.674;9.242;2022-11-06T00:16:12;17.10;;;11.70;;
21501;SDS011;27639;48.674;9.242;2022-11-06T00:18:39;14.93;;;10.80;;
21501;SDS011;27639;48.674;9.242;2022-11-06T00:21:12;14.80;;;11.45;;
21501;SDS011;27639;48.674;9.242;2022-11-06T00:23:43;16.25;;;11.43;;
21501;SDS011;27639;48.674;9.242;2022-11-06T00:26:11;13.13;;;10.93;;
21501;SDS011;27639;48.674;9.242;2022-11-06T00:28:40;13.25;;;10.88;;
21501;SDS011;27639;48.674;9.242;2022-11-06T00:31:08;14.15;;;10.63;;
21501;SDS011;27639;48.674;9.242;2022-11-06T00:33:36;14.45;;;11.18;;
21501;SDS011;27639;48.674;9.242;2022-11-06T00:36:05;14.40;;;11.35;;
21501;SDS011;27639;48.674;9.242;2022-11-06T00:38:32;14.80;;;11.38;;
21501;SDS011;27639;48.674;9.242;2022-11-06T00:41:05;16.30;;;11.35;;
21501;SDS011;27639;48.674;9.242;2022-11-06T00:43:32;15.77;;;10.90;;
21501;SDS011;27639;48.674;9.242;2022-11-06T00:46:00;14.73;;;10.95;;
21501;SDS011;27639;48.674;9.242;2022-11-06T00:48:27;15.55;;;10.82;;
21501;SDS011;27639;48.674;9.242;2022-11-06T00:50:53;15.45;;;11.48;;
21501;SDS011;27639;48.674;9.242;2022-11-06T00:53:18;13.13;;;10.25;;
21501;SDS011;27639;48.674;9.242;2022-11-06T00:55:44;12.75;;;10.23;;
21501;SDS011;27639;48.674;9.242;2022-11-06T00:58:09;13.15;;;9.65;;
21501;SDS011;27639;48.674;9.242;2022-11-06T01:00:35;13.52;;;9.80;;
21501;SDS011;27639;48.674;9.242;2022-11-06T01:03:00;12.23;;;9.77;;
21501;SDS011;27639;48.674;9.242;2022-11-06T01:05:26;12.40;;;9.45;;
21501;SDS011;27639;48.674;9.242;2022-11-06T01:07:51;12.52;;;10.07;;
21501;SDS011;27639;48.674;9.242;2022-11-06T01:10:17;12.45;;;10.25;;
21501;SDS011;27639;48.674;9.242;2022-11-06T01:12:42;11.18;;;9.15;;
21501;SDS011;27639;48.674;9.242;2022-11-06T01:15:08;12.15;;;9.20;;
21501;SDS011;27639;48.674;9.242;2022-11-06T01:17:34;11.93;;;9.07;;
21501;SDS011;27639;48.674;9.242;2022-11-06T01:19:59;12.55;;;9.73;;
21501;SDS011;27639;48.674;9.242;2022-11-06T01:22:25;10.65;;;8.88;;
21501;SDS011;27639;48.674;9.242;2022-11-06T01:24:50;11.45;;;9.57;;
21501;SDS011;27639;48.674;9.242;2022-11-06T01:27:16;10.75;;;8.80;;
21501;SDS011;27639;48.674;9.242;2022-11-06T01:29:42;11.77;;;8.48;;
21501;SDS011;27639;48.674;9.242;2022-11-06T01:32:08;11.90;;;9.27;;
21501;SDS011;27639;48.674;9.242;2022-11-06T01:34:33;10.93;;;9.18;;
21501;SDS011;27639;48.674;9.242;2022-11-06T01:36:59;10.38;;;8.57;;
21501;SDS011;27639;48.674;9.242;2022-11-06T01:39:24;12.18;;;8.90;;
21501;SDS011;27639;48.674;9.242;2022-11-06T01:41:51;9.70;;;8.02;;
21501;SDS011;27639;48.674;9.242;2022-11-06T01:47:15;10.93;;;9.05;;
21501;SDS011;27639;48.674;9.242;2022-11-06T01:49:42;11.38;;;9.10;;
21501;SDS011;27639;48.674;9.242;2022-11-06T01:52:09;12.02;;;9.02;;
21501;SDS011;27639;48.674;9.242;2022-11-06T01:54:37;11.10;;;8.77;;
21501;SDS011;27639;48.674;9.242;2022-11-06T01:57:04;11.65;;;9.05;;
21501;SDS011;27639;48.674;9.242;2022-11-06T01:59:31;10.80;;;9.13;;
21501;SDS011;27639;48.674;9.242;2022-11-06T02:01:59;10.68;;;8.90;;
21501;SDS011;27639;48.674;9.242;2022-11-06T02:04:26;12.88;;;9.90;;
21501;SDS011;27639;48.674;9.242;2022-11-06T02:06:55;11.38;;;9.02;;
21501;SDS011;27639;48.674;9.242;2022-11-06T02:09:22;12.38;;;10.18;;
21501;SDS011;27639;48.674;9.242;2022-11-06T02:17:03;12.43;;;9.63;;
21501;SDS011;27639;48.674;9.242;2022-11-06T02:28:25;15.25;;;10.48;;
21501;SDS011;27639;48.674;9.242;2022-11-06T02:30:56;11.60;;;8.90;;
21501;SDS011;27639;48.674;9.242;2022-11-06T02:33:32;9.02;;;7.68;;
21501;SDS011;27639;48.674;9.242;2022-11-06T02:36:05;10.57;;;8.43;;
21501;SDS011;27639;48.674;9.242;2022-11-06T02:38:33;10.88;;;8.00;;
21501;SDS011;27639;48.674;9.242;2022-11-06T02:41:06;9.45;;;8.10;;
21501;SDS011;27639;48.674;9.242;2022-11-06T02:43:36;9.65;;;8.07;;
21501;SDS011;27639;48.674;9.242;2022-11-06T02:46:05;9.95;;;7.82;;
21501;SDS011;27639;48.674;9.242;2022-11-06T02:48:40;10.20;;;8.52;;
21501;SDS011;27639;48.674;9.242;2022-11-06T02:51:10;12.48;;;9.10;;
21501;SDS011;27639;48.674;9.242;2022-11-06T02:53:40;12.00;;;8.68;;
21501;SDS011;27639;48.674;9.242;2022-11-06T02:56:10;10.55;;;9.20;;
21501;SDS011;27639;48.674;9.242;2022-11-06T02:58:40;12.02;;;8.98;;
21501;SDS011;27639;48.674;9.242;2022-11-06T03:01:18;12.35;;;8.55;;
21501;SDS011;27639;48.674;9.242;2022-11-06T03:03:52;12.57;;;9.25;;
21501;SDS011;27639;48.674;9.242;2022-11-06T03:06:29;21.05;;;9.85;;
21501;SDS011;27639;48.674;9.242;2022-11-06T03:08:59;9.55;;;8.07;;
21501;SDS011;27639;48.674;9.242;2022-11-06T03:11:50;10.05;;;7.40;;
21501;SDS011;27639;48.674;9.242;2022-11-06T03:14:26;9.77;;;7.65;;
21501;SDS011;27639;48.674;9.242;2022-11-06T03:17:10;11.50;;;7.70;;
21501;SDS011;27639;48.674;9.242;2022-11-06T03:24:58;9.50;;;7.45;;
21501;SDS011;27639;48.674;9.242;2022-11-06T03:27:32;10.25;;;7.82;;
21501;SDS011;27639;48.674;9.242;2022-11-06T03:30:04;10.65;;;7.72;;
21501;SDS011;27639;48.674;9.242;2022-11-06T03:32:33;10.55;;;6.65;;
21501;SDS011;27639;48.674;9.242;2022-11-06T03:35:14;9.98;;;7.25;;
21501;SDS011;27639;48.674;9.242;2022-11-06T03:37:56;9.05;;;6.75;;
21501;SDS011;27639;48.674;9.242;2022-11-06T03:40:26;11.48;;;6.85;;
21501;SDS011;27639;48.674;9.242;2022-11-06T03:42:58;13.55;;;7.05;;
21501;SDS011;27639;48.674;9.242;2022-11-06T03:45:28;11.35;;;6.97;;
21501;SDS011;27639;48.674;9.242;2022-11-06T03:50:34;13.23;;;7.20;;
21501;SDS011;27639;48.674;9.242;2022-11-06T03:53:06;21.08;;;6.90;;
21501;SDS011;27639;48.674;9.242;2022-11-06T03:55:39;14.07;;;6.30;;
21501;SDS011;27639;48.674;9.242;2022-11-06T03:58:13;15.43;;;7.20;;
21501;SDS011;27639;48.674;9.242;2022-11-06T04:00:42;11.30;;;6.38;;
21501;SDS011;27639;48.674;9.242;2022-11-06T04:03:21;12.00;;;6.13;;
21501;SDS011;27639;48.674;9.242;2022-11-06T04:05:51;8.20;;;6.22;;
21501;SDS011;27639;48.674;9.242;2022-11-06T04:08:20;12.35;;;6.90;;
21501;SDS011;27639;48.674;9.242;2022-11-06T04:11:07;9.25;;;6.68;;
21501;SDS011;27639;48.674;9.242;2022-11-06T04:13:54;10.52;;;6.60;;
21501;SDS011;27639;48.674;9.242;2022-11-06T04:16:35;18.08;;;6.95;;
21501;SDS011;27639;48.674;9.242;2022-11-06T04:19:17;12.38;;;6.38;;
21501;SDS011;27639;48.674;9.242;2022-11-06T04:30:16;9.52;;;6.53;;
21501;SDS011;27639;48.674;9.242;2022-11-06T04:38:02;12.55;;;6.65;;
21501;SDS011;27639;48.674;9.242;2022-11-06T04:40:57;8.98;;;6.63;;
21501;SDS011;27639;48.674;9.242;2022-11-06T04:43:41;11.00;;;6.90;;
21501;SDS011;27639;48.674;9.242;2022-11-06T04:46:29;9.40;;;6.20;;
21501;SDS011;27639;48.674;9.242;2022-11-06T04:49:05;14.95;;;6.47;;
21501;SDS011;27639;48.674;9.242;2022-11-06T04:51:33;9.95;;;6.75;;
21501;SDS011;27639;48.674;9.242;2022-11-06T04:54:01;9.32;;;6.80;;
21501;SDS011;27639;48.674;9.242;2022-11-06T04:56:29;8.35;;;6.32;;
21501;SDS011;27639;48.674;9.242;2022-11-06T04:58:55;8.93;;;6.28;;
21501;SDS011;27639;48.674;9.242;2022-11-06T05:01:21;9.50;;;6.55;;
21501;SDS011;27639;48.674;9.242;2022-11-06T05:03:47;21.35;;;6.93;;
21501;SDS011;27639;48.674;9.242;2022-11-06T05:06:12;15.15;;;6.75;;
21501;SDS011;27639;48.674;9.242;2022-11-06T05:08:38;15.48;;;6.95;;
21501;SDS011;27639;48.674;9.242;2022-11-06T05:11:04;9.80;;;6.65;;
21501;SDS011;27639;48.674;9.242;2022-11-06T05:13:30;9.18;;;6.18;;
21501;SDS011;27639;48.674;9.242;2022-11-06T05:15:56;8.23;;;6.38;;
21501;SDS011;27639;48.674;9.242;2022-11-06T05:18:23;8.65;;;6.68;;
21501;SDS011;27639;48.674;9.242;2022-11-06T05:20:50;9.20;;;6.80;;
21501;SDS011;27639;48.674;9.242;2022-11-06T05:23:39;11.00;;;6.50;;
21501;SDS011;27639;48.674;9.242;2022-11-06T05:26:05;7.50;;;5.90;;
21501;SDS011;27639;48.674;9.242;2022-11-06T05:28:31;14.70;;;7.00;;
21501;SDS011;27639;48.674;9.242;2022-11-06T05:30:57;9.85;;;6.93;;
21501;SDS011;27639;48.674;9.242;2022-11-06T05:33:23;8.45;;;6.68;;
21501;SDS011;27639;48.674;9.242;2022-11-06T05:35:49;10.50;;;7.07;;
21501;SDS011;27639;48.674;9.242;2022-11-06T05:38:15;11.07;;;6.53;;
21501;SDS011;27639;48.674;9.242;2022-11-06T05:40:41;14.85;;;6.25;;
21501;SDS011;27639;48.674;9.242;2022-11-06T05:43:07;9.75;;;6.07;;
21501;SDS011;27639;48.674;9.242;2022-11-06T05:45:32;7.78;;;5.95;;
21501;SDS011;27639;48.674;9.242;2022-11-06T05:47:58;10.98;;;5.68;;
21501;SDS011;27639;48.674;9.242;2022-11-06T05:50:23;14.38;;;5.78;;
21501;SDS011;27639;48.674;9.242;2022-11-06T05:52:49;9.23;;;5.45;;
21501;SDS011;27639;48.674;9.242;2022-11-06T05:55:15;10.52;;;6.03;;
21501;SDS011;27639;48.674;9.242;2022-11-06T05:57:41;15.00;;;6.35;;
21501;SDS011;27639;48.674;9.242;2022-11-06T06:00:07;10.82;;;5.70;;
21501;SDS011;27639;48.674;9.242;2022-11-06T06:02:34;8.30;;;5.50;;
21501;SDS011;27639;48.674;9.242;2022-11-06T06:05:01;12.35;;;5.85;;
21501;SDS011;27639;48.674;9.242;2022-11-06T06:07:27;8.60;;;5.78;;
21501;SDS011;27639;48.674;9.242;2022-11-06T06:09:53;13.38;;;6.03;;
21501;SDS011;27639;48.674;9.242;2022-11-06T06:12:18;17.58;;;6.40;;
21501;SDS011;27639;48.674;9.242;2022-11-06T06:14:44;11.45;;;6.40;;
21501;SDS011;27639;48.674;9.242;2022-11-06T06:17:10;11.25;;;5.95;;
21501;SDS011;27639;48.674;9.242;2022-11-06T06:19:35;13.00;;;6.40;;
21501;SDS011;27639;48.674;9.242;2022-11-06T06:22:01;9.43;;;6.38;;
21501;SDS011;27639;48.674;9.242;2022-11-06T06:24:26;8.75;;;6.18;;
21501;SDS011;27639;48.674;9.242;2022-11-06T06:26:52;8.73;;;6.18;;
21501;SDS011;27639;48.674;9.242;2022-11-06T06:29:18;8.38;;;6.40;;
21501;SDS011;27639;48.674;9.242;2022-11-06T06:31:43;7.28;;;5.47;;
21501;SDS011;27639;48.674;9.242;2022-11-06T06:34:09;8.05;;;6.40;;
21501;SDS011;27639;48.674;9.242;2022-11-06T06:36:34;7.55;;;5.95;;
21501;SDS011;27639;48.674;9.242;2022-11-06T06:39:00;21.42;;;6.18;;
21501;SDS011;27639;48.674;9.242;2022-11-06T06:41:25;10.57;;;5.70;;
21501;SDS011;27639;48.674;9.242;2022-11-06T06:43:51;8.07;;;5.63;;
21501;SDS011;27639;48.674;9.242;2022-11-06T06:46:16;12.23;;;5.72;;
21501;SDS011;27639;48.674;9.242;2022-11-06T06:48:42;7.20;;;5.10;;
21501;SDS011;27639;48.674;9.242;2022-11-06T06:51:08;9.43;;;5.20;;
21501;SDS011;27639;48.674;9.242;2022-11-06T06:53:33;21.20;;;5.68;;
21501;SDS011;27639;48.674;9.242;2022-11-06T06:56:00;11.52;;;5.13;;
21501;SDS011;27639;48.674;9.242;2022-11-06T06:58:29;8.57;;;5.63;;
21501;SDS011;27639;48.674;9.242;2022-11-06T07:00:59;9.35;;;5.72;;
21501;SDS011;27639;48.674;9.242;2022-11-06T07:03:26;7.03;;;5.70;;
21501;SDS011;27639;48.674;9.242;2022-11-06T07:05:52;7.72;;;5.45;;
21501;SDS011;27639;48.674;9.242;2022-11-06T07:08:18;9.30;;;5.68;;
21501;SDS011;27639;48.674;9.242;2022-11-06T07:10:43;8.00;;;5.90;;
21501;SDS011;27639;48.674;9.242;2022-11-06T07:13:09;7.95;;;6.15;;
21501;SDS011;27639;48.674;9.242;2022-11-06T07:15:34;9.95;;;5.45;;
21501;SDS011;27639;48.674;9.242;2022-11-06T07:18:01;14.80;;;4.60;;
21501;SDS011;27639;48.674;9.242;2022-11-06T07:20:28;21.25;;;4.70;;
21501;SDS011;27639;48.674;9.242;2022-11-06T07:22:54;25.60;;;6.10;;
21501;SDS011;27639;48.674;9.242;2022-11-06T07:25:20;35.75;;;6.65;;
21501;SDS011;27639;48.674;9.242;2022-11-06T07:27:45;26.83;;;6.15;;
21501;SDS011;27639;48.674;9.242;2022-11-06T07:30:11;31.70;;;6.70;;
21501;SDS011;27639;48.674;9.242;2022-11-06T07:32:37;45.38;;;6.30;;
21501;SDS011;27639;48.674;9.242;2022-11-06T07:35:02;38.42;;;6.72;;
21501;SDS011;27639;48.674;9.242;2022-11-06T07:37:28;55.03;;;6.90;;
21501;SDS011;27639;48.674;9.242;2022-11-06T07:39:54;46.58;;;6.93;;
21501;SDS011;27639;48.674;9.242;2022-11-06T07:42:19;42.58;;;7.75;;
21501;SDS011;27639;48.674;9.242;2022-11-06T07:44:45;51.63;;;7.18;;
21501;SDS011;27639;48.674;9.242;2022-11-06T07:47:10;47.72;;;7.32;;
21501;SDS011;27639;48.674;9.242;2022-11-06T07:49:36;55.83;;;7.35;;
21501;SDS011;27639;48.674;9.242;2022-11-06T07:52:02;41.75;;;8.32;;
21501;SDS011;27639;48.674;9.242;2022-11-06T07:54:29;43.38;;;7.18;;
21501;SDS011;27639;48.674;9.242;2022-11-06T07:56:55;15.45;;;7.55;;
21501;SDS011;27639;48.674;9.242;2022-11-06T07:59:20;51.67;;;7.25;;
21501;SDS011;27639;48.674;9.242;2022-11-06T08:01:46;72.97;;;7.30;;
21501;SDS011;27639;48.674;9.242;2022-11-06T08:04:11;68.20;;;7.25;;
21501;SDS011;27639;48.674;9.242;2022-11-06T08:06:37;41.33;;;7.35;;
21501;SDS011;27639;48.674;9.242;2022-11-06T08:09:04;34.35;;;7.00;;
21501;SDS011;27639;48.674;9.242;2022-11-06T08:11:33;38.03;;;7.68;;
21501;SDS011;27639;48.674;9.242;2022-11-06T08:13:59;28.58;;;6.90;;
21501;SDS011;27639;48.674;9.242;2022-11-06T08:16:25;27.48;;;6.82;;
21501;SDS011;27639;48.674;9.242;2022-11-06T08:18:50;16.17;;;6.85;;
21501;SDS011;27639;48.674;9.242;2022-11-06T08:21:16;24.20;;;8.20;;
21501;SDS011;27639;48.674;9.242;2022-11-06T08:23:41;19.95;;;8.13;;
21501;SDS011;27639;48.674;9.242;2022-11-06T08:26:07;30.08;;;7.45;;
21501;SDS011;27639;48.674;9.242;2022-11-06T08:28:33;23.45;;;8.05;;
21501;SDS011;27639;48.674;9.242;2022-11-06T08:31:05;20.85;;;8.60;;
21501;SDS011;27639;48.674;9.242;2022-11-06T08:33:32;26.10;;;8.82;;
21501;SDS011;27639;48.674;9.242;2022-11-06T08:36:04;13.90;;;9.52;;
21501;SDS011;27639;48.674;9.242;2022-11-06T08:38:31;14.57;;;6.70;;
21501;SDS011;27639;48.674;9.242;2022-11-06T08:40:57;11.93;;;7.97;;
21501;SDS011;27639;48.674;9.242;2022-11-06T08:43:23;12.55;;;8.00;;
21501;SDS011;27639;48.674;9.242;2022-11-06T08:45:50;14.70;;;8.20;;
21501;SDS011;27639;48.674;9.242;2022-11-06T08:48:16;13.85;;;8.95;;
21501;SDS011;27639;48.674;9.242;2022-11-06T08:50:42;14.32;;;8.68;;
21501;SDS011;27639;48.674;9.242;2022-11-06T08:53:08;12.90;;;8.25;;
21501;SDS011;27639;48.674;9.242;2022-11-06T08:55:34;15.63;;;7.75;;
21501;SDS011;27639;48.674;9.242;2022-11-06T08:58:01;12.93;;;6.85;;
21501;SDS011;27639;48.674;9.242;2022-11-06T09:00:28;11.98;;;7.97;;
21501;SDS011;27639;48.674;9.242;2022-11-06T09:02:57;12.10;;;7.70;;
21501;SDS011;27639;48.674;9.242;2022-11-06T09:05:24;10.45;;;7.45;;
21501;SDS011;27639;48.674;9.242;2022-11-06T09:07:49;12.38;;;8.30;;
21501;SDS011;27639;48.674;9.242;2022-11-06T09:10:15;13.52;;;8.32;;
21501;SDS011;27639;48.674;9.242;2022-11-06T09:12:40;9.68;;;7.07;;
21501;SDS011;27639;48.674;9.242;2022-11-06T09:15:06;10.65;;;7.28;;
21501;SDS011;27639;48.674;9.242;2022-11-06T09:17:32;12.38;;;8.95;;
21501;SDS011;27639;48.674;9.242;2022-11-06T09:19:57;11.45;;;8.45;;
21501;SDS011;27639;48.674;9.242;2022-11-06T09:22:23;10.90;;;8.07;;
21501;SDS011;27639;48.674;9.242;2022-11-06T09:24:49;12.13;;;8.95;;
21501;SDS011;27639;48.674;9.242;2022-11-06T09:27:14;11.48;;;8.93;;
21501;SDS011;27639;48.674;9.242;2022-11-06T09:29:40;10.23;;;7.30;;
21501;SDS011;27639;48.674;9.242;2022-11-06T09:32:08;9.45;;;7.47;;
21501;SDS011;27639;48.674;9.242;2022-11-06T09:34:35;10.23;;;7.47;;
21501;SDS011;27639;48.674;9.242;2022-11-06T09:37:01;9.98;;;7.28;;
21501;SDS011;27639;48.674;9.242;2022-11-06T09:39:27;10.00;;;7.60;;
21501;SDS011;27639;48.674;9.242;2022-11-06T09:41:53;11.90;;;8.05;;
21501;SDS011;27639;48.674;9.242;2022-11-06T09:44:27;8.77;;;6.70;;
21501;SDS011;27639;48.674;9.242;2022-11-06T09:47:08;10.80;;;7.65;;
21501;SDS011;27639;48.674;9.242;2022-11-06T09:49:44;10.52;;;6.93;;
21501;SDS011;27639;48.674;9.242;2022-11-06T09:52:31;10.13;;;7.20;;
21501;SDS011;27639;48.674;9.242;2022-11-06T09:55:25;13.50;;;8.75;;
21501;SDS011;27639;48.674;9.242;2022-11-06T09:57:54;10.48;;;7.78;;
21501;SDS011;27639;48.674;9.242;2022-11-06T10:00:23;11.83;;;8.80;;
21501;SDS011;27639;48.674;9.242;2022-11-06T10:02:54;12.32;;;8.07;;
21501;SDS011;27639;48.674;9.242;2022-11-06T10:05:40;8.93;;;7.00;;
21501;SDS011;27639;48.674;9.242;2022-11-06T10:18:55;10.07;;;8.13;;
21501;SDS011;27639;48.674;9.242;2022-11-06T10:30:12;13.18;;;9.70;;
21501;SDS011;27639;48.674;9.242;2022-11-06T10:38:03;14.55;;;10.10;;
21501;SDS011;27639;48.674;9.242;2022-11-06T10:40:34;12.93;;;9.63;;
21501;SDS011;27639;48.674;9.242;2022-11-06T10:45:33;11.73;;;9.02;;
21501;SDS011;27639;48.674;9.242;2022-11-06T10:48:09;11.52;;;9.00;;
21501;SDS011;27639;48.674;9.242;2022-11-06T10:59:24;9.93;;;7.78;;
21501;SDS011;27639;48.674;9.242;2022-11-06T11:01:50;9.18;;;7.57;;
21501;SDS011;27639;48.674;9.242;2022-11-06T11:04:16;8.20;;;6.22;;
21501;SDS011;27639;48.674;9.242;2022-11-06T11:06:41;9.95;;;7.00;;
21501;SDS011;27639;48.674;9.242;2022-11-06T11:11:56;9.98;;;7.38;;
21501;SDS011;27639;48.674;9.242;2022-11-06T11:14:23;8.80;;;6.68;;
21501;SDS011;27639;48.674;9.242;2022-11-06T11:16:51;8.93;;;7.18;;
21501;SDS011;27639;48.674;9.242;2022-11-06T11:19:37;9.68;;;7.07;;
21501;SDS011;27639;48.674;9.242;2022-11-06T11:22:18;9.18;;;7.35;;
21501;SDS011;27639;48.674;9.242;2022-11-06T11:27:22;9.05;;;7.32;;
21501;SDS011;27639;48.674;9.242;2022-11-06T11:29:49;9.85;;;7.57;;
21501;SDS011;27639;48.674;9.242;2022-11-06T11:32:15;9.30;;;7.07;;
21501;SDS011;27639;48.674;9.242;2022-11-06T11:34:45;10.48;;;7.82;;
21501;SDS011;27639;48.674;9.242;2022-11-06T11:37:27;9.60;;;6.88;;
21501;SDS011;27639;48.674;9.242;2022-11-06T11:39:56;10.02;;;7.45;;
21501;SDS011;27639;48.674;9.242;2022-11-06T11:46:00;8.65;;;6.40;;
21501;SDS011;27639;48.674;9.242;2022-11-06T11:51:11;7.20;;;5.32;;
21501;SDS011;27639;48.674;9.242;2022-11-06T11:53:37;7.57;;;4.78;;
21501;SDS011;27639;48.674;9.242;2022-11-06T11:56:03;6.90;;;4.60;;
21501;SDS011;27639;48.674;9.242;2022-11-06T11:58:31;7.90;;;4.88;;
21501;SDS011;27639;48.674;9.242;2022-11-06T12:00:58;6.80;;;5.10;;
21501;SDS011;27639;48.674;9.242;2022-11-06T12:03:33;7.28;;;5.50;;
21501;SDS011;27639;48.674;9.242;2022-11-06T12:06:13;7.50;;;5.72;;
21501;SDS011;27639;48.674;9.242;2022-11-06T12:08:51;7.53;;;5.45;;
21501;SDS011;27639;48.674;9.242;2022-11-06T12:11:19;7.57;;;5.47;;
21501;SDS011;27639;48.674;9.242;2022-11-06T12:16:49;7.82;;;5.75;;
21501;SDS011;27639;48.674;9.242;2022-11-06T12:19:17;7.70;;;5.35;;
21501;SDS011;27639;48.674;9.242;2022-11-06T12:21:45;6.57;;;5.05;;
21501;SDS011;27639;48.674;9.242;2022-11-06T12:24:16;6.70;;;4.93;;
21501;SDS011;27639;48.674;9.242;2022-11-06T12:27:03;7.45;;;5.68;;
21501;SDS011;27639;48.674;9.242;2022-11-06T12:29:47;6.78;;;4.88;;
21501;SDS011;27639;48.674;9.242;2022-11-06T12:32:25;7.53;;;5.40;;
21501;SDS011;27639;48.674;9.242;2022-11-06T12:40:58;6.97;;;4.90;;
21501;SDS011;27639;48.674;9.242;2022-11-06T12:43:46;7.32;;;5.03;;
21501;SDS011;27639;48.674;9.242;2022-11-06T13:00:22;7.07;;;4.75;;
21501;SDS011;27639;48.674;9.242;2022-11-06T13:05:41;5.85;;;4.18;;
21501;SDS011;27639;48.674;9.242;2022-11-06T13:08:31;5.70;;;4.05;;
21501;SDS011;27639;48.674;9.242;2022-11-06T13:18:48;5.65;;;3.97;;
21501;SDS011;27639;48.674;9.242;2022-11-06T13:21:29;6.47;;;4.35;;
21501;SDS011;27639;48.674;9.242;2022-11-06T13:24:29;5.55;;;3.90;;
21501;SDS011;27639;48.674;9.242;2022-11-06T13:27:12;5.97;;;4.18;;
21501;SDS011;27639;48.674;9.242;2022-11-06T13:29:40;5.57;;;4.28;;
21501;SDS011;27639;48.674;9.242;2022-11-06T13:32:09;6.63;;;4.03;;
21501;SDS011;27639;48.674;9.242;2022-11-06T13:34:40;5.20;;;3.70;;
21501;SDS011;27639;48.674;9.242;2022-11-06T13:37:52;5.93;;;4.00;;
21501;SDS011;27639;48.674;9.242;2022-11-06T13:40:01;5.55;;;4.10;;
21501;SDS011;27639;48.674;9.242;2022-11-06T13:42:56;5.53;;;4.03;;
21501;SDS011;27639;48.674;9.242;2022-11-06T13:45:27;5.88;;;4.07;;
21501;SDS011;27639;48.674;9.242;2022-11-06T13:54:03;7.85;;;4.35;;
21501;SDS011;27639;48.674;9.242;2022-11-06T14:04:33;6.25;;;3.78;;
21501;SDS011;27639;48.674;9.242;2022-11-06T14:07:18;5.75;;;4.20;;
21501;SDS011;27639;48.674;9.242;2022-11-06T14:09:45;5.93;;;4.15;;
21501;SDS011;27639;48.674;9.242;2022-11-06T14:12:14;5.40;;;3.67;;
21501;SDS011;27639;48.674;9.242;2022-11-06T14:14:43;5.28;;;3.88;;
21501;SDS011;27639;48.674;9.242;2022-11-06T14:20:05;5.35;;;3.58;;
21501;SDS011;27639;48.674;9.242;2022-11-06T14:22:50;5.65;;;3.72;;
21501;SDS011;27639;48.674;9.242;2022-11-06T14:32:53;6.53;;;4.93;;
21501;SDS011;27639;48.674;9.242;2022-11-06T14:40:34;5.05;;;3.33;;
21501;SDS011;27639;48.674;9.242;2022-11-06T14:43:09;5.32;;;3.72;;
21501;SDS011;27639;48.674;9.242;2022-11-06T14:45:51;5.35;;;3.67;;
21501;SDS011;27639;48.674;9.242;2022-11-06T14:48:37;5.38;;;3.85;;
21501;SDS011;27639;48.674;9.242;2022-11-06T14:51:08;5.00;;;3.50;;
21501;SDS011;27639;48.674;9.242;2022-11-06T14:53:44;5.57;;;3.72;;
21501;SDS011;27639;48.674;9.242;2022-11-06T14:56:19;5.18;;;3.97;;
21501;SDS011;27639;48.674;9.242;2022-11-06T14:58:56;5.72;;;3.63;;
21501;SDS011;27639;48.674;9.242;2022-11-06T15:01:57;5.28;;;4.00;;
21501;SDS011;27639;48.674;9.242;2022-11-06T15:05:04;5.97;;;4.03;;
21501;SDS011;27639;48.674;9.242;2022-11-06T15:07:33;6.10;;;4.00;;
21501;SDS011;27639;48.674;9.242;2022-11-06T15:10:02;6.10;;;3.67;;
21501;SDS011;27639;48.674;9.242;2022-11-06T15:15:32;5.88;;;4.70;;
21501;SDS011;27639;48.674;9.242;2022-11-06T15:17:59;6.50;;;4.70;;
21501;SDS011;27639;48.674;9.242;2022-11-06T15:20:26;6.32;;;4.63;;
21501;SDS011;27639;48.674;9.242;2022-11-06T15:23:03;7.40;;;5.10;;
21501;SDS011;27639;48.674;9.242;2022-11-06T15:25:35;7.78;;;5.57;;
21501;SDS011;27639;48.674;9.242;2022-11-06T15:28:10;7.50;;;4.75;;
21501;SDS011;27639;48.674;9.242;2022-11-06T15:31:20;7.38;;;5.55;;
21501;SDS011;27639;48.674;9.242;2022-11-06T15:33:32;6.78;;;5.00;;
21501;SDS011;27639;48.674;9.242;2022-11-06T15:36:15;6.50;;;5.00;;
21501;SDS011;27639;48.674;9.242;2022-11-06T15:38:42;8.90;;;5.00;;
21501;SDS011;27639;48.674;9.242;2022-11-06T15:41:22;7.25;;;4.50;;
21501;SDS011;27639;48.674;9.242;2022-11-06T15:43:50;8.65;;;5.97;;
21501;SDS011;27639;48.674;9.242;2022-11-06T15:46:19;8.20;;;5.35;;
21501;SDS011;27639;48.674;9.242;2022-11-06T15:49:14;8.60;;;5.90;;
21501;SDS011;27639;48.674;9.242;2022-11-06T15:51:40;8.60;;;6.28;;
21501;SDS011;27639;48.674;9.242;2022-11-06T15:54:35;8.90;;;5.95;;
21501;SDS011;27639;48.674;9.242;2022-11-06T15:57:26;9.38;;;6.70;;
21501;SDS011;27639;48.674;9.242;2022-11-06T16:00:05;9.07;;;6.63;;
21501;SDS011;27639;48.674;9.242;2022-11-06T16:02:31;8.55;;;6.68;;
21501;SDS011;27639;48.674;9.242;2022-11-06T16:04:57;10.10;;;6.85;;
21501;SDS011;27639;48.674;9.242;2022-11-06T16:07:22;10.15;;;7.20;;
21501;SDS011;27639;48.674;9.242;2022-11-06T16:09:48;9.60;;;7.40;;
21501;SDS011;27639;48.674;9.242;2022-11-06T16:12:16;9.55;;;7.35;;
21501;SDS011;27639;48.674;9.242;2022-11-06T16:14:42;10.73;;;7.85;;
21501;SDS011;27639;48.674;9.242;2022-11-06T16:17:09;10.93;;;7.90;;
21501;SDS011;27639;48.674;9.242;2022-11-06T16:19:41;11.10;;;7.43;;
21501;SDS011;27639;48.674;9.242;2022-11-06T16:22:13;10.27;;;7.90;;
21501;SDS011;27639;48.674;9.242;2022-11-06T16:27:09;10.35;;;7.97;;
21501;SDS011;27639;48.674;9.242;2022-11-06T16:29:35;10.68;;;7.80;;
21501;SDS011;27639;48.674;9.242;2022-11-06T16:36:59;10.93;;;8.93;;
21501;SDS011;27639;48.674;9.242;2022-11-06T16:42:23;11.25;;;8.75;;
21501;SDS011;27639;48.674;9.242;2022-11-06T16:50:41;11.15;;;8.45;;
21501;SDS011;27639;48.674;9.242;2022-11-06T16:53:08;12.38;;;8.88;;
21501;SDS011;27639;48.674;9.242;2022-11-06T16:55:33;11.07;;;8.48;;
21501;SDS011;27639;48.674;9.242;2022-11-06T16:57:59;13.65;;;9.65;;
21501;SDS011;27639;48.674;9.242;2022-11-06T17:00:30;13.73;;;8.77;;
21501;SDS011;27639;48.674;9.242;2022-11-06T17:02:57;12.60;;;8.88;;
21501;SDS011;27639;48.674;9.242;2022-11-06T17:05:26;11.73;;;8.63;;
21501;SDS011;27639;48.674;9.242;2022-11-06T17:13:45;13.15;;;8.50;;
21501;SDS011;27639;48.674;9.242;2022-11-06T17:16:16;12.02;;;9.15;;
21501;SDS011;27639;48.674;9.242;2022-11-06T17:18:44;14.77;;;10.52;;
21501;SDS011;27639;48.674;9.242;2022-11-06T17:21:12;15.57;;;10.95;;
21501;SDS011;27639;48.674;9.242;2022-11-06T17:23:39;13.63;;;10.35;;
21501;SDS011;27639;48.674;9.242;2022-11-06T17:26:06;12.75;;;9.15;;
21501;SDS011;27639;48.674;9.242;2022-11-06T17:28:38;10.88;;;7.70;;
21501;SDS011;27639;48.674;9.242;2022-11-06T17:31:04;12.32;;;8.68;;
21501;SDS011;27639;48.674;9.242;2022-11-06T17:33:29;13.38;;;9.48;;
21501;SDS011;27639;48.674;9.242;2022-11-06T17:35:55;16.67;;;9.82;;
21501;SDS011;27639;48.674;9.242;2022-11-06T17:38:20;20.60;;;11.55;;
21501;SDS011;27639;48.674;9.242;2022-11-06T17:40:46;21.95;;;12.77;;
21501;SDS011;27639;48.674;9.242;2022-11-06T17:43:12;19.88;;;12.52;;
21501;SDS011;27639;48.674;9.242;2022-11-06T17:45:38;16.52;;;10.43;;
21501;SDS011;27639;48.674;9.242;2022-11-06T17:48:05;16.27;;;10.88;;
21501;SDS011;27639;48.674;9.242;2022-11-06T17:50:30;14.02;;;9.65;;